createdAt,value
2018-12-15T00:04:37.003Z,14.03
2018-12-15T00:09:38.238Z,12.93
2018-12-15T00:14:39.749Z,14.70
2018-12-15T00:19:41.046Z,13.53
2018-12-15T00:24:42.241Z,14.43
2018-12-15T00:29:43.746Z,13.20
2018-12-15T00:34:44.949Z,14.20
2018-12-15T00:39:46.113Z,14.00
2018-12-15T00:44:47.312Z,13.70
2018-12-15T00:49:48.506Z,14.07
2018-12-15T00:54:49.796Z,13.97
2018-12-15T00:59:50.983Z,14.37
2018-12-15T01:04:52.161Z,14.63
2018-12-15T01:09:53.346Z,14.20
2018-12-15T01:14:54.600Z,13.33
2018-12-15T01:19:55.949Z,13.73
2018-12-15T01:24:57.111Z,13.67
2018-12-15T01:29:58.277Z,13.93
2018-12-15T01:34:59.450Z,14.90
2018-12-15T01:40:00.641Z,13.07
2018-12-15T01:45:02.045Z,13.43
2018-12-15T01:50:03.886Z,13.80
2018-12-15T01:55:05.286Z,15.03
2018-12-15T02:00:06.692Z,14.23
2018-12-15T02:05:07.866Z,15.20
2018-12-15T02:10:09.163Z,15.27
2018-12-15T02:15:10.469Z,14.70
2018-12-15T02:20:11.766Z,15.03
2018-12-15T02:25:12.926Z,15.43
2018-12-15T02:30:14.211Z,14.17
2018-12-15T02:35:15.386Z,13.83
2018-12-15T02:40:16.646Z,14.43
2018-12-15T02:45:17.954Z,13.93
2018-12-15T02:50:19.234Z,14.47
2018-12-15T02:55:20.409Z,13.50
2018-12-15T03:00:21.719Z,13.57
2018-12-15T03:05:22.930Z,12.70
2018-12-15T03:10:24.119Z,14.70
2018-12-15T03:15:25.295Z,12.40
2018-12-15T03:20:26.482Z,13.97
2018-12-15T03:25:27.678Z,15.10
2018-12-15T03:30:29.076Z,15.03
2018-12-15T03:35:30.335Z,15.97
2018-12-15T03:40:31.522Z,14.73
2018-12-15T03:45:32.685Z,14.73
2018-12-15T03:50:33.849Z,15.03
2018-12-15T03:55:35.014Z,15.07
2018-12-15T04:00:36.178Z,14.30
2018-12-15T04:05:37.374Z,14.60
2018-12-15T04:10:38.563Z,14.33
2018-12-15T04:15:39.851Z,14.13
2018-12-15T04:20:41.034Z,16.17
2018-12-15T04:25:42.235Z,13.27
2018-12-15T04:30:43.420Z,14.23
2018-12-15T04:35:44.609Z,14.90
2018-12-15T04:40:45.778Z,16.33
2018-12-15T04:45:46.958Z,17.67
2018-12-15T04:50:48.171Z,18.53
2018-12-15T04:55:49.357Z,16.10
2018-12-15T05:00:50.571Z,15.10
2018-12-15T05:05:51.734Z,14.30
2018-12-15T05:10:52.901Z,14.77
2018-12-15T05:15:54.086Z,15.40
2018-12-15T05:20:55.250Z,15.20
2018-12-15T05:25:56.406Z,16.23
2018-12-15T05:30:57.570Z,16.13
2018-12-15T05:35:58.751Z,16.83
2018-12-15T05:40:59.950Z,16.13
2018-12-15T05:46:01.122Z,15.80
2018-12-15T05:51:02.453Z,15.73
2018-12-15T05:56:03.629Z,15.43
2018-12-15T06:01:04.854Z,16.07
2018-12-15T06:06:06.038Z,13.00
2018-12-15T06:11:07.222Z,13.80
2018-12-15T06:16:08.389Z,13.80
2018-12-15T06:21:09.578Z,15.10
2018-12-15T06:26:10.736Z,13.33
2018-12-15T06:31:11.899Z,15.97
2018-12-15T06:36:13.071Z,14.80
2018-12-15T06:41:14.222Z,12.57
2018-12-15T06:46:15.424Z,15.40
2018-12-15T06:51:16.623Z,15.23
2018-12-15T06:56:19.838Z,14.37
2018-12-15T07:01:21.157Z,14.73
2018-12-15T07:06:22.380Z,15.80
2018-12-15T07:11:23.561Z,15.17
2018-12-15T07:16:24.733Z,16.90
2018-12-15T07:21:25.901Z,16.53
2018-12-15T07:26:27.065Z,15.17
2018-12-15T07:31:28.270Z,16.60
2018-12-15T07:36:29.438Z,15.27
2018-12-15T07:41:30.660Z,16.10
2018-12-15T07:46:31.840Z,15.17
2018-12-15T07:51:33.031Z,14.40
2018-12-15T07:56:34.201Z,15.33
2018-12-15T08:01:35.394Z,15.47
2018-12-15T08:06:36.639Z,16.20
2018-12-15T08:11:43.830Z,13.67
2018-12-15T08:16:45.051Z,14.73
2018-12-15T08:21:46.214Z,14.27
2018-12-15T08:26:47.408Z,14.17
2018-12-15T08:31:48.624Z,14.53
2018-12-15T08:36:49.868Z,13.83
2018-12-15T08:41:51.057Z,13.57
2018-12-15T08:46:52.379Z,15.00
2018-12-15T08:51:53.554Z,13.93
2018-12-15T08:56:54.849Z,14.40
2018-12-15T09:01:56.821Z,14.17
2018-12-15T09:06:58.018Z,13.60
2018-12-15T09:12:00.030Z,13.37
2018-12-15T09:17:01.418Z,15.33
2018-12-15T09:22:02.649Z,13.57
2018-12-15T09:27:03.865Z,12.30
2018-12-15T09:32:05.309Z,13.70
2018-12-15T09:37:06.484Z,11.83
2018-12-15T09:42:07.645Z,13.40
2018-12-15T09:47:08.882Z,12.77
2018-12-15T09:52:10.107Z,12.77
2018-12-15T09:57:11.362Z,13.33
2018-12-15T10:02:12.551Z,14.07
2018-12-15T10:07:13.722Z,13.07
2018-12-15T10:12:14.898Z,12.73
2018-12-15T10:17:16.823Z,13.53
2018-12-15T10:22:18.113Z,13.00
2018-12-15T10:27:19.341Z,14.13
2018-12-15T10:32:26.803Z,15.70
2018-12-15T10:37:27.997Z,14.77
2018-12-15T10:42:29.194Z,13.00
2018-12-15T10:47:30.395Z,14.47
2018-12-15T10:52:31.600Z,12.87
2018-12-15T10:57:32.809Z,12.90
2018-12-15T11:02:33.984Z,10.87
2018-12-15T11:07:36.140Z,11.37
2018-12-15T11:12:37.307Z,12.53
2018-12-15T11:17:38.496Z,13.60
2018-12-15T11:22:39.692Z,11.77
2018-12-15T11:27:40.885Z,12.60
2018-12-15T11:32:42.060Z,12.40
2018-12-15T11:37:43.238Z,12.43
2018-12-15T11:42:44.428Z,12.60
2018-12-15T11:47:45.616Z,11.43
2018-12-15T11:52:46.790Z,13.00
2018-12-15T11:57:47.982Z,12.07
2018-12-15T12:02:49.334Z,12.77
2018-12-15T12:07:50.741Z,12.27
2018-12-15T12:12:52.103Z,13.17
2018-12-15T12:17:53.302Z,15.07
2018-12-15T12:22:54.510Z,12.50
2018-12-15T12:27:56.667Z,13.60
2018-12-15T12:32:59.346Z,12.80
2018-12-15T12:38:00.901Z,13.03
2018-12-15T12:43:02.097Z,13.37
2018-12-15T12:48:03.304Z,13.43
2018-12-15T12:53:04.493Z,12.80
2018-12-15T12:58:05.766Z,12.67
2018-12-15T13:03:06.929Z,12.40
2018-12-15T13:08:08.137Z,13.63
2018-12-15T13:13:09.354Z,12.73
2018-12-15T13:18:10.542Z,13.87
2018-12-15T13:23:11.741Z,13.70
2018-12-15T13:28:13.113Z,13.33
2018-12-15T13:33:27.944Z,13.80
2018-12-15T13:38:29.134Z,14.03
2018-12-15T13:43:30.640Z,14.50
2018-12-15T13:48:31.908Z,14.70
2018-12-15T13:53:33.144Z,14.67
2018-12-15T13:58:34.382Z,15.10
2018-12-15T14:03:35.587Z,16.37
2018-12-15T14:08:37.068Z,17.90
2018-12-15T14:13:38.270Z,14.63
2018-12-15T14:18:39.446Z,13.07
2018-12-15T14:23:40.629Z,14.13
2018-12-15T14:28:42.755Z,14.10
2018-12-15T14:33:43.956Z,13.77
2018-12-15T14:38:45.166Z,14.00
2018-12-15T14:43:46.342Z,14.30
2018-12-15T14:48:47.544Z,13.87
2018-12-15T14:53:48.762Z,13.97
2018-12-15T14:58:49.951Z,14.70
2018-12-15T15:03:51.159Z,14.37
2018-12-15T15:08:52.344Z,13.73
2018-12-15T15:13:53.640Z,14.03
2018-12-15T15:18:54.814Z,12.80
2018-12-15T15:23:56.034Z,14.57
2018-12-15T15:28:57.215Z,14.37
2018-12-15T15:33:58.410Z,13.03
2018-12-15T15:38:59.644Z,13.33
2018-12-15T15:44:00.859Z,13.23
2018-12-15T15:49:02.041Z,13.87
2018-12-15T15:54:03.398Z,25.67
2018-12-15T15:59:04.618Z,16.57
2018-12-15T16:04:05.832Z,15.93
2018-12-15T16:09:07.622Z,15.40
2018-12-15T16:14:08.819Z,15.60
2018-12-15T16:19:10.003Z,14.53
2018-12-15T16:24:11.198Z,16.30
2018-12-15T16:29:12.400Z,13.57
2018-12-15T16:34:13.595Z,15.13
2018-12-15T16:39:14.800Z,15.00
2018-12-15T16:44:15.983Z,15.57
2018-12-15T16:49:17.290Z,15.03
2018-12-15T16:54:18.547Z,13.70
2018-12-15T16:59:19.750Z,13.17
2018-12-15T17:04:20.950Z,12.07
2018-12-15T17:09:22.159Z,11.50
2018-12-15T17:19:52.002Z,12.40
2018-12-15T17:24:53.409Z,12.60
2018-12-15T17:29:54.623Z,11.47
2018-12-15T17:34:55.783Z,11.37
2018-12-15T17:39:56.978Z,12.53
2018-12-15T17:44:58.179Z,13.07
2018-12-15T17:49:59.733Z,11.23
2018-12-15T17:55:00.978Z,12.00
2018-12-15T18:00:04.343Z,11.33
2018-12-15T18:05:05.758Z,12.23
2018-12-15T18:10:07.694Z,12.10
2018-12-15T18:15:09.013Z,11.93
2018-12-15T18:20:11.206Z,13.47
2018-12-15T18:25:12.384Z,12.60
2018-12-15T18:30:13.930Z,12.97
2018-12-15T18:35:15.146Z,12.63
2018-12-15T18:40:16.600Z,13.17
2018-12-15T18:45:17.836Z,13.00
2018-12-15T18:50:19.186Z,12.93
2018-12-15T18:55:20.479Z,13.97
2018-12-15T19:00:21.682Z,14.00
2018-12-15T19:05:22.864Z,14.07
2018-12-15T19:10:24.043Z,15.63
2018-12-15T19:15:25.230Z,15.70
2018-12-15T19:20:26.512Z,15.17
2018-12-15T19:25:28.050Z,16.83
2018-12-15T19:30:29.348Z,16.47
2018-12-15T19:35:30.539Z,16.03
2018-12-15T19:40:31.879Z,15.93
2018-12-15T19:45:33.083Z,14.73
2018-12-15T19:50:34.301Z,14.50
2018-12-15T19:55:35.512Z,15.00
2018-12-15T20:00:36.736Z,14.90
2018-12-15T20:05:37.988Z,15.43
2018-12-15T20:10:39.235Z,15.23
2018-12-15T20:15:42.728Z,15.30
2018-12-15T20:20:44.097Z,15.00
2018-12-15T20:25:45.317Z,16.87
2018-12-15T20:30:46.536Z,16.63
2018-12-15T20:35:48.065Z,16.27
2018-12-15T20:40:49.288Z,15.20
2018-12-15T20:45:50.835Z,13.40
2018-12-15T20:50:52.046Z,14.30
2018-12-15T20:55:53.303Z,13.07
2018-12-15T21:00:54.889Z,13.13
2018-12-15T21:05:56.086Z,13.53
2018-12-15T21:10:57.642Z,13.67
2018-12-15T21:15:58.994Z,12.93
2018-12-15T21:21:00.264Z,12.83
2018-12-15T21:26:01.590Z,13.30
2018-12-15T21:31:03.056Z,12.90
2018-12-15T21:36:04.254Z,12.73
2018-12-15T21:41:05.483Z,13.37
2018-12-15T21:46:06.688Z,13.13
2018-12-15T21:51:07.884Z,13.17
2018-12-15T21:56:09.444Z,13.07
2018-12-15T22:01:10.615Z,13.60
2018-12-15T22:06:12.139Z,13.43
2018-12-15T22:11:13.326Z,13.13
2018-12-15T22:16:14.523Z,13.27
2018-12-15T22:21:15.742Z,13.20
2018-12-15T22:26:17.066Z,12.80
2018-12-15T22:31:18.298Z,12.50
2018-12-15T22:36:19.535Z,12.73
2018-12-15T22:41:20.703Z,12.60
2018-12-15T22:46:21.878Z,12.37
2018-12-15T22:51:23.420Z,12.73
2018-12-15T22:56:24.615Z,13.00
2018-12-15T23:01:25.958Z,11.77
2018-12-15T23:06:27.162Z,11.53
2018-12-15T23:11:28.379Z,11.93
2018-12-15T23:16:29.562Z,11.93
2018-12-15T23:21:30.785Z,12.23
2018-12-15T23:26:31.983Z,12.47
2018-12-15T23:31:33.163Z,12.83
2018-12-15T23:36:34.453Z,12.43
2018-12-15T23:41:35.642Z,12.37
2018-12-15T23:46:36.862Z,11.43
2018-12-15T23:51:38.442Z,12.63
2018-12-15T23:56:39.638Z,12.50
